Time;durP1;ratioP1;P1;durP2;ratioP2;P2;SDS_P1;SDS_P2;PMS_P1;PMS_P2;Temp;Humidity;BMP_temperature;BMP_pressure;BME280_temperature;BME280_humidity;BME280_pressure;Samples;Min_cycle;Max_cycle;Signal;HPM_P1;HPM_P2
2020/12/03 00:00:42;;;;;;;63.22;41.10;;;2.20;67.90;3.40;100113.00;;;;5079730;28;20414;-77
2020/12/03 00:03:19;;;;;;;68.30;41.70;;;2.20;67.90;3.50;100106.00;;;;5114557;27;20425;-76
2020/12/03 00:05:55;;;;;;;72.00;42.92;;;2.30;68.30;3.60;100119.00;;;;5127700;28;20440;-76
2020/12/03 00:08:23;;;;;;;76.50;44.22;;;2.30;69.10;3.70;100110.00;;;;5132003;28;20437;-76
2020/12/03 00:10:51;;;;;;;71.60;43.80;;;2.30;68.50;3.70;100100.00;;;;5132983;28;20420;-77
2020/12/03 00:13:24;;;;;;;69.30;42.20;;;2.30;68.50;3.70;100093.00;;;;5133513;28;20422;-76
2020/12/03 00:15:56;;;;;;;71.82;43.83;;;2.40;68.40;3.80;100089.00;;;;5132443;28;20402;-76
2020/12/03 00:18:24;;;;;;;69.80;42.45;;;2.30;68.10;3.90;100082.00;;;;5113998;28;20922;-76
2020/12/03 00:20:52;;;;;;;68.20;41.92;;;2.40;68.50;52.70;158340.00;;;;5100427;28;20494;-76
2020/12/03 00:23:21;;;;;;;70.50;41.65;;;2.40;68.20;3.90;100065.00;;;;5092304;28;20416;-77
2020/12/03 00:25:52;;;;;;;68.35;42.20;;;2.40;68.20;3.80;100085.00;;;;5084971;28;20453;-77
2020/12/03 00:28:19;;;;;;;66.00;40.60;;;2.40;68.40;3.90;100073.00;;;;5086428;28;20464;-76
2020/12/03 00:30:48;;;;;;;64.95;39.80;;;2.40;67.90;3.90;100064.00;;;;5091181;28;20457;-77
2020/12/03 00:33:17;;;;;;;63.33;41.55;;;2.40;67.70;3.90;100065.00;;;;5087232;28;20412;-76
2020/12/03 00:35:45;;;;;;;65.53;40.30;;;2.50;67.80;4.00;100081.00;;;;5086735;28;20407;-77
2020/12/03 00:38:13;;;;;;;61.58;38.85;;;2.50;68.00;3.80;100058.00;;;;5092336;28;20426;-76
2020/12/03 00:40:40;;;;;;;59.28;38.22;;;2.40;67.30;3.70;100063.00;;;;5090216;28;20430;-77
2020/12/03 00:43:08;;;;;;;62.33;39.20;;;2.40;67.30;3.60;100053.00;;;;5072490;28;20786;-78
2020/12/03 00:45:36;;;;;;;63.70;40.23;;;2.30;67.50;3.70;100058.00;;;;5092872;28;20418;-78
2020/12/03 00:48:04;;;;;;;64.57;39.20;;;2.30;67.90;3.60;100044.00;;;;5091440;28;20442;-78
2020/12/03 00:50:31;;;;;;;60.42;39.10;;;2.30;67.70;3.50;100045.00;;;;5093408;28;20433;-76
2020/12/03 00:52:59;;;;;;;66.20;40.55;;;2.30;67.90;3.70;100026.00;;;;5085275;28;20461;-76
2020/12/03 00:55:26;;;;;;;64.53;39.40;;;2.30;68.20;3.70;100038.00;;;;5091570;28;20814;-77
2020/12/03 00:57:54;;;;;;;62.60;37.90;;;2.30;68.20;3.70;100032.00;;;;5095385;28;20419;-75
2020/12/03 01:00:23;;;;;;;64.40;40.65;;;2.30;68.00;3.80;100028.00;;;;5112122;28;20414;-76
2020/12/03 01:02:52;;;;;;;65.78;39.25;;;2.40;68.50;3.80;100033.00;;;;5107152;28;20414;-76
2020/12/03 01:05:20;;;;;;;65.10;39.70;;;2.40;68.10;3.80;100022.00;;;;5122687;28;20421;-75
2020/12/03 01:07:47;;;;;;;64.15;40.10;;;2.40;68.10;3.80;100028.00;;;;5073405;28;20947;-75
2020/12/03 01:10:19;;;;;;;63.20;39.10;;;2.40;67.90;3.80;100019.00;;;;5045490;28;20422;-78
2020/12/03 01:12:48;;;;;;;64.00;40.13;;;2.40;67.70;3.70;100031.00;;;;5055791;28;20448;-76
2020/12/03 01:15:16;;;;;;;62.80;39.85;;;2.40;67.40;3.70;100009.00;;;;5074730;28;20440;-76
2020/12/03 01:17:45;;;;;;;54.22;34.78;;;2.40;67.50;3.60;100004.00;;;;5075654;28;20402;-76
2020/12/03 01:20:16;;;;;;;53.30;34.70;;;2.30;67.00;3.50;100005.00;;;;5071468;28;20474;-76
2020/12/03 01:22:44;;;;;;;57.70;35.88;;;2.30;66.50;3.50;99984.00;;;;5071984;28;21018;-77
2020/12/03 01:25:12;;;;;;;54.22;35.33;;;2.20;66.80;3.50;99968.00;;;;5055843;28;20426;-76
2020/12/03 01:27:40;;;;;;;54.13;35.45;;;2.20;67.00;3.60;99977.00;;;;5056469;28;20426;-77
2020/12/03 01:30:09;;;;;;;53.88;34.30;;;2.30;67.30;3.60;99973.00;;;;5072417;28;20420;-77
2020/12/03 01:32:38;;;;;;;54.75;33.85;;;2.30;67.10;3.60;99971.00;;;;5052246;28;20504;-77
2020/12/03 01:35:10;;;;;;;54.72;33.97;;;2.30;67.20;3.60;99973.00;;;;5046956;28;20416;-77
2020/12/03 01:37:38;;;;;;;53.80;35.60;;;2.30;66.90;3.60;99966.00;;;;5046233;28;20565;-76
2020/12/03 01:40:07;;;;;;;53.75;33.75;;;2.30;67.10;3.70;99951.00;;;;5053211;28;20872;-77
2020/12/03 01:42:38;;;;;;;48.42;31.40;;;2.30;67.10;3.60;99954.00;;;;5042375;28;20419;-77
2020/12/03 01:45:49;;;;;;;53.30;33.67;;;2.30;66.70;3.60;99935.00;;;;5044705;28;20429;-76
2020/12/03 01:48:22;;;;;;;54.55;34.70;;;2.30;66.70;3.50;99950.00;;;;5026815;28;20473;-77
2020/12/03 01:50:51;;;;;;;53.45;34.10;;;2.30;66.90;3.50;99923.00;;;;5047817;28;20417;-77
2020/12/03 01:53:20;;;;;;;56.95;35.00;;;2.30;67.10;3.60;99943.00;;;;5048807;28;20421;-76
2020/12/03 01:55:50;;;;;;;56.45;35.60;;;2.30;67.00;3.60;99939.00;;;;5050899;28;20456;-77
2020/12/03 01:58:32;;;;;;;53.38;34.30;;;2.30;67.20;3.70;99930.00;;;;5050100;28;20513;-76
2020/12/03 02:01:01;;;;;;;52.70;32.73;;;2.30;67.10;3.60;99910.00;;;;5049818;28;20832;-77
2020/12/03 02:03:29;;;;;;;53.00;33.92;;;2.30;67.00;3.50;99918.00;;;;5049352;28;20525;-76
2020/12/03 02:05:57;;;;;;;56.65;33.70;;;2.30;66.90;3.60;99912.00;;;;5048631;28;20413;-75
2020/12/03 02:08:25;;;;;;;55.88;34.58;;;2.30;67.00;3.70;99912.00;;;;5049078;28;20429;-76
2020/12/03 02:10:53;;;;;;;54.60;32.75;;;2.30;67.40;3.60;99916.00;;;;5067234;28;20516;-76
2020/12/03 02:13:20;;;;;;;51.28;32.63;;;2.30;67.20;3.60;99898.00;;;;5049756;28;20476;-76
2020/12/03 02:15:48;;;;;;;55.95;34.50;;;2.30;66.80;3.60;99885.00;;;;5051950;28;20417;-75
2020/12/03 02:18:15;;;;;;;51.57;34.80;;;2.30;66.90;3.60;99887.00;;;;5050993;28;20426;-76
2020/12/03 02:20:43;;;;;;;51.42;32.20;;;2.30;66.90;52.70;158257.00;;;;5052849;28;20782;-77
2020/12/03 02:23:16;;;;;;;50.75;32.13;;;2.40;66.80;3.70;99893.00;;;;5051089;28;20422;-76
2020/12/03 02:25:45;;;;;;;48.40;31.08;;;2.40;67.00;3.60;99887.00;;;;5053225;28;20419;-77
2020/12/03 02:28:12;;;;;;;47.72;31.17;;;2.50;66.60;3.60;99878.00;;;;5053603;28;20443;-76
2020/12/03 02:30:43;;;;;;;48.75;30.27;;;2.30;66.60;3.60;99871.00;;;;5052485;28;20793;-77
2020/12/03 02:33:10;;;;;;;45.92;30.33;;;2.30;66.70;3.60;99865.00;;;;5052276;28;20422;-76
2020/12/03 02:35:37;;;;;;;47.95;30.63;;;2.30;66.70;217.30;158199.00;;;;5051986;28;20488;-77
2020/12/03 02:38:05;;;;;;;47.03;30.98;;;2.30;66.50;3.40;99866.00;;;;5050655;28;20460;-77
2020/12/03 02:40:33;;;;;;;46.95;29.80;;;2.30;66.40;3.40;99843.00;;;;5053925;28;20421;-77
2020/12/03 02:43:00;;;;;;;50.00;31.27;;;2.20;66.40;3.40;99859.00;;;;5052329;28;20418;-77
2020/12/03 02:45:27;;;;;;;48.35;30.13;;;2.20;66.90;3.40;99844.00;;;;5052440;28;20435;-77
2020/12/03 02:47:54;;;;;;;49.33;30.10;;;2.20;66.90;3.40;99856.00;;;;5051576;28;20417;-76
2020/12/03 02:50:22;;;;;;;49.08;31.20;;;2.20;66.80;3.50;99853.00;;;;5046419;28;20417;-77
2020/12/03 02:52:49;;;;;;;47.30;30.13;;;2.20;67.00;3.50;99865.00;;;;5056394;28;20432;-77
2020/12/03 02:55:17;;;;;;;45.83;29.48;;;2.20;66.90;3.40;99863.00;;;;5054610;28;20919;-77
2020/12/03 02:57:45;;;;;;;48.03;29.98;;;2.30;66.90;3.40;99857.00;;;;5081425;28;20411;-76
2020/12/03 03:00:12;;;;;;;47.55;29.90;;;2.20;67.00;3.50;67038.00;;;;5052841;28;20571;-76
2020/12/03 03:02:39;;;;;;;49.25;30.23;;;2.20;67.10;3.60;99856.00;;;;5052933;28;20507;-76
2020/12/03 03:05:07;;;;;;;45.38;29.88;;;2.30;67.10;3.50;99833.00;;;;5053097;28;20788;-77
2020/12/03 03:07:34;;;;;;;48.45;30.98;;;2.30;66.60;3.60;99853.00;;;;5031804;28;20426;-77
2020/12/03 03:10:01;;;;;;;47.13;28.70;;;2.30;67.00;3.60;99830.00;;;;5047609;28;20417;-76
2020/12/03 03:12:29;;;;;;;43.90;28.65;;;2.30;66.90;3.60;99849.00;;;;5051201;28;20419;-77
2020/12/03 03:14:57;;;;;;;43.30;28.50;;;2.40;67.00;3.60;99851.00;;;;5052394;28;20955;-77
2020/12/03 03:17:24;;;;;;;42.22;28.13;;;2.30;66.60;3.50;99839.00;;;;5048005;28;20426;-76
2020/12/03 03:19:52;;;;;;;43.63;27.67;;;2.30;66.30;3.50;99842.00;;;;5051097;28;20788;-76
2020/12/03 03:22:19;;;;;;;44.50;28.27;;;2.30;66.80;3.60;67040.00;;;;5052779;28;20413;-76
2020/12/03 03:24:46;;;;;;;42.70;28.53;;;2.30;66.90;3.60;99817.00;;;;5047651;28;20433;-77
2020/12/03 03:27:14;;;;;;;43.65;28.52;;;2.30;66.80;3.60;99836.00;;;;5049238;28;20438;-77
2020/12/03 03:29:42;;;;;;;41.58;27.50;;;2.30;66.40;3.60;99817.00;;;;5058430;28;20423;-77
2020/12/03 03:32:09;;;;;;;42.95;27.85;;;2.20;66.10;3.60;99835.00;;;;5057861;28;21375;-77
2020/12/03 03:34:37;;;;;;;39.97;27.60;;;2.30;66.40;3.60;99812.00;;;;5052074;28;20669;-77
2020/12/03 03:37:05;;;;;;;41.88;27.02;;;2.30;66.40;3.60;99828.00;;;;5068262;28;20453;-77
2020/12/03 03:39:33;;;;;;;42.70;27.48;;;2.30;66.30;3.60;99829.00;;;;5081064;28;20409;-76
2020/12/03 03:42:00;;;;;;;41.10;26.02;;;2.30;66.20;3.60;99821.00;;;;5061259;28;20420;-77
2020/12/03 03:44:27;;;;;;;41.75;27.23;;;2.30;66.10;3.50;99804.00;;;;5059110;28;20503;-79
2020/12/03 03:46:56;;;;;;;44.42;28.67;;;2.30;66.10;3.50;99799.00;;;;5038989;28;20512;-77
2020/12/03 03:49:23;;;;;;;40.78;26.83;;;2.30;66.30;3.60;99822.00;;;;5049971;28;20502;-76
2020/12/03 03:51:52;;;;;;;40.42;25.45;;;2.30;66.60;3.60;99813.00;;;;5051926;28;20408;-77
2020/12/03 03:54:19;;;;;;;41.47;25.83;;;2.30;66.20;3.60;99821.00;;;;5045922;28;21051;-77
2020/12/03 03:56:46;;;;;;;41.60;27.30;;;2.30;66.90;3.60;99820.00;;;;5052269;28;20484;-77
2020/12/03 03:59:14;;;;;;;38.27;25.80;;;2.30;66.30;3.70;99811.00;;;;5050078;28;20417;-77
2020/12/03 04:01:41;;;;;;;40.20;27.10;;;2.30;66.50;3.80;99826.00;;;;5062356;28;20482;-77
2020/12/03 04:04:09;;;;;;;37.50;26.33;;;2.40;66.50;3.70;99805.00;;;;5061120;28;20509;-77
2020/12/03 04:06:37;;;;;;;36.95;24.77;;;2.40;66.00;3.60;99809.00;;;;5051894;28;21031;-76
2020/12/03 04:09:05;;;;;;;40.70;26.52;;;2.40;66.00;3.60;99809.00;;;;5056976;28;20428;-75
2020/12/03 04:11:32;;;;;;;38.10;26.38;;;2.30;65.90;3.60;99799.00;;;;5050831;28;20403;-76
2020/12/03 04:13:59;;;;;;;38.50;26.25;;;2.30;65.90;3.60;99795.00;;;;5050715;28;20419;-77
2020/12/03 04:16:26;;;;;;;41.67;28.20;;;2.30;65.90;3.70;99790.00;;;;5050519;28;20770;-77
2020/12/03 04:18:54;;;;;;;41.35;26.70;;;2.30;66.00;3.70;99801.00;;;;5051655;28;20905;-76
2020/12/03 04:21:22;;;;;;;40.28;26.83;;;2.40;66.20;52.70;158302.00;;;;5049908;28;20910;-76
2020/12/03 04:23:49;;;;;;;43.28;27.33;;;2.40;66.30;3.90;99809.00;;;;5049097;28;20526;-77
2020/12/03 04:26:17;;;;;;;39.90;26.55;;;2.40;66.50;3.80;99807.00;;;;5051058;28;20540;-76
2020/12/03 04:28:44;;;;;;;38.40;26.07;;;2.50;65.80;3.90;99807.00;;;;5049820;28;20449;-76
2020/12/03 04:31:11;;;;;;;41.90;27.10;;;2.50;65.80;4.00;99811.00;;;;5049848;28;20410;-77
2020/12/03 04:33:39;;;;;;;39.55;26.98;;;2.50;66.00;4.00;99793.00;;;;5050915;28;20417;-77
2020/12/03 04:36:06;;;;;;;38.33;25.80;;;2.50;65.70;4.00;99797.00;;;;5051055;28;20411;-77
2020/12/03 04:38:35;;;;;;;43.65;27.63;;;2.50;65.40;4.00;99790.00;;;;5049120;28;20419;-76
2020/12/03 04:41:03;;;;;;;42.28;28.20;;;2.60;65.60;4.00;99798.00;;;;5051585;28;20423;-77
2020/12/03 04:43:36;;;;;;;41.50;28.02;;;2.60;65.70;4.00;99774.00;;;;5058973;28;20411;-77
2020/12/03 04:46:20;;;;;;;37.20;25.45;;;2.60;65.90;4.00;99781.00;;;;5050030;28;20924;-77
2020/12/03 04:49:25;;;;;;;41.75;27.98;;;2.60;65.60;4.00;99781.00;;;;5050808;28;20426;-77
2020/12/03 04:52:24;;;;;;;41.37;27.93;;;2.60;65.30;4.00;99775.00;;;;5033505;28;21020;-76
2020/12/03 04:55:09;;;;;;;39.92;26.15;;;2.60;65.30;3.90;99769.00;;;;5030157;28;20534;-77
2020/12/03 04:57:43;;;;;;;40.83;26.15;;;2.50;64.90;3.90;99767.00;;;;5069980;28;20923;-77
2020/12/03 05:00:22;;;;;;;40.03;26.60;;;2.60;65.30;4.00;99775.00;;;;5039809;28;20430;-77
2020/12/03 05:03:39;;;;;;;41.83;26.40;;;2.60;65.40;4.00;99768.00;;;;5046996;28;20441;-77
2020/12/03 05:06:27;;;;;;;43.60;28.43;;;2.40;65.30;3.90;99758.00;;;;5051069;28;20432;-77
2020/12/03 05:09:01;;;;;;;41.10;26.38;;;2.60;65.30;3.90;99759.00;;;;5063809;28;20921;-76
2020/12/03 05:11:37;;;;;;;39.55;26.10;;;2.50;65.30;3.90;99764.00;;;;5050043;28;20509;-77
2020/12/03 05:14:16;;;;;;;41.20;26.88;;;2.60;65.50;4.10;99750.00;;;;5050720;28;20429;-76
2020/12/03 05:16:54;;;;;;;43.42;27.10;;;2.60;65.80;4.10;99760.00;;;;5056719;28;20421;-77
2020/12/03 05:19:34;;;;;;;38.50;26.75;;;2.60;65.30;4.10;67165.00;;;;5037305;28;20549;-76
2020/12/03 05:22:13;;;;;;;39.63;27.10;;;2.60;65.10;217.30;158421.00;;;;5059298;28;20457;-77
2020/12/03 05:24:40;;;;;;;42.20;26.23;;;2.60;64.80;4.10;99747.00;;;;5039839;28;21185;-76
2020/12/03 05:27:19;;;;;;;43.10;26.88;;;2.50;65.50;4.20;99754.00;;;;5059709;28;20427;-75
2020/12/03 05:29:47;;;;;;;38.72;25.50;;;2.70;65.00;4.30;99738.00;;;;5066719;28;20438;-76
2020/12/03 05:32:15;;;;;;;43.13;27.00;;;2.70;65.00;4.40;99744.00;;;;5067131;28;20415;-76
2020/12/03 05:34:42;;;;;;;38.13;25.85;;;2.70;65.10;4.40;99751.00;;;;5056303;28;20433;-76
2020/12/03 05:37:13;;;;;;;40.03;26.00;;;2.90;65.10;4.40;99750.00;;;;5058237;28;20413;-76
2020/12/03 05:39:44;;;;;;;41.45;26.25;;;2.80;64.80;4.40;99732.00;;;;5072266;28;21005;-78
2020/12/03 05:42:17;;;;;;;39.75;25.30;;;2.80;64.90;4.50;99738.00;;;;5059947;28;20475;-77
2020/12/03 05:44:51;;;;;;;39.10;25.05;;;2.80;64.70;4.50;99724.00;;;;5061118;28;20443;-77
2020/12/03 05:47:24;;;;;;;41.40;25.00;;;2.80;64.60;4.50;99720.00;;;;5076975;28;20465;-76
2020/12/03 05:49:56;;;;;;;38.40;25.40;;;2.90;64.50;4.50;99719.00;;;;5062581;28;20459;-77
2020/12/03 05:52:26;;;;;;;36.35;24.65;;;2.80;64.30;4.40;99717.00;;;;5074676;28;20448;-77
2020/12/03 05:55:01;;;;;;;36.38;24.67;;;2.80;64.20;4.40;99719.00;;;;5073086;28;20451;-77
2020/12/03 05:57:32;;;;;;;36.47;24.48;;;2.80;64.10;4.50;99723.00;;;;5072722;28;20431;-77
2020/12/03 06:00:26;;;;;;;35.58;24.70;;;2.80;64.30;4.50;99720.00;;;;5065944;28;20756;-76
2020/12/03 06:03:31;;;;;;;35.85;24.08;;;2.90;63.90;4.40;99713.00;;;;5057435;28;20427;-77
2020/12/03 06:06:51;;;;;;;35.28;23.27;;;2.90;63.80;4.50;99719.00;;;;5041925;28;20779;-76
2020/12/03 06:09:38;;;;;;;33.65;22.50;;;2.80;63.80;4.50;99707.00;;;;5055788;28;20784;-77
2020/12/03 06:12:33;;;;;;;32.97;23.00;;;2.90;63.80;4.60;99690.00;;;;5069002;28;20516;-76
2020/12/03 06:15:16;;;;;;;33.40;22.40;;;2.90;63.80;4.60;99694.00;;;;5059286;28;20443;-76
2020/12/03 06:17:58;;;;;;;31.88;22.55;;;2.80;63.80;4.50;99709.00;;;;5037221;28;20424;-76
2020/12/03 06:20:53;;;;;;;33.00;23.90;;;2.80;63.80;4.40;99696.00;;;;5054040;28;20514;-76
2020/12/03 06:23:48;;;;;;;33.95;23.40;;;2.80;63.80;4.20;99704.00;;;;5069635;28;20434;-75
2020/12/03 06:26:37;;;;;;;31.25;21.92;;;2.80;63.80;4.20;99695.00;;;;5056678;28;20482;-75
2020/12/03 06:29:28;;;;;;;33.88;23.75;;;2.70;63.90;4.20;99677.00;;;;5051286;28;20483;-76
2020/12/03 06:32:16;;;;;;;32.70;23.23;;;2.70;64.60;4.20;99691.00;;;;5056045;28;20466;-76
2020/12/03 06:34:52;;;;;;;33.50;22.30;;;2.70;64.70;4.30;99680.00;;;;5056440;28;20543;-77
2020/12/03 06:37:27;;;;;;;33.20;23.40;;;2.70;65.00;4.40;99673.00;;;;5050938;28;20540;-77
2020/12/03 06:39:59;;;;;;;34.00;23.85;;;2.70;65.10;4.40;67210.00;;;;5056328;28;20420;-77
2020/12/03 06:42:34;;;;;;;36.92;24.23;;;2.80;65.00;4.30;99667.00;;;;5057208;28;20416;-76
2020/12/03 06:45:25;;;;;;;34.15;22.75;;;2.80;64.90;4.20;99665.00;;;;5057496;28;21006;-76
2020/12/03 06:48:34;;;;;;;32.53;23.10;;;2.60;65.00;4.30;99663.00;;;;5087686;28;20459;-76
2020/12/03 06:51:29;;;;;;;33.88;22.30;;;2.80;65.20;4.30;99669.00;;;;5065933;28;20461;-75
2020/12/03 06:54:30;;;;;;;33.05;22.10;;;2.80;65.20;4.30;99663.00;;;;5069909;28;20427;-77
2020/12/03 06:57:56;;;;;;;32.70;22.50;;;2.70;65.10;4.30;99666.00;;;;5068516;28;20459;-77
2020/12/03 07:01:09;;;;;;;33.08;23.08;;;2.70;65.40;4.10;99663.00;;;;5057074;28;20495;-77
2020/12/03 07:04:36;;;;;;;34.30;23.35;;;2.70;65.10;4.20;99663.00;;;;5059160;28;20435;-78
2020/12/03 07:07:39;;;;;;;36.13;23.48;;;2.70;65.50;4.10;99650.00;;;;5059715;28;21120;-76
2020/12/03 07:10:50;;;;;;;35.25;23.88;;;2.60;65.30;4.10;99638.00;;;;5045435;28;20435;-77
2020/12/03 07:14:23;;;;;;;34.38;23.17;;;2.60;65.90;4.20;99633.00;;;;5063584;28;20463;-77
2020/12/03 07:18:05;;;;;;;38.60;25.50;;;2.60;66.10;4.20;99635.00;;;;5008793;28;20524;-76
2020/12/03 07:21:07;;;;;;;36.10;24.42;;;2.70;66.30;4.20;99630.00;;;;5024861;28;20439;-76
2020/12/03 07:23:43;;;;;;;34.92;23.90;;;2.70;66.20;4.20;99632.00;;;;5002188;28;20467;-76
2020/12/03 07:26:40;;;;;;;37.22;24.73;;;2.70;66.10;4.20;99629.00;;;;5050478;28;20457;-75
2020/12/03 07:29:17;;;;;;;37.05;25.15;;;2.70;66.40;4.20;99642.00;;;;5092865;28;20482;-76
2020/12/03 07:31:49;;;;;;;36.72;24.70;;;2.70;66.70;4.20;99636.00;;;;5075879;28;20427;-75
2020/12/03 07:34:28;;;;;;;40.13;25.42;;;2.70;66.60;4.30;99621.00;;;;5073947;28;20452;-74
2020/12/03 07:37:07;;;;;;;39.08;25.35;;;2.70;66.60;4.30;99629.00;;;;5076197;28;20424;-76
2020/12/03 07:39:36;;;;;;;36.15;24.48;;;2.80;66.60;4.20;99637.00;;;;5071786;28;20453;-77
2020/12/03 07:42:11;;;;;;;40.30;25.85;;;2.80;66.50;4.20;67179.00;;;;5074945;28;20403;-75
2020/12/03 07:44:44;;;;;;;42.50;26.20;;;2.80;66.60;217.30;158489.00;;;;5072362;28;20503;-77
2020/12/03 07:47:30;;;;;;;39.67;25.98;;;2.90;66.70;4.10;67167.00;;;;5056320;28;20925;-76
2020/12/03 07:50:00;;;;;;;40.95;26.80;;;2.70;66.50;4.20;67185.00;;;;5052880;28;20491;-76
2020/12/03 07:52:33;;;;;;;40.08;26.27;;;2.70;67.50;4.30;67197.00;;;;5052177;28;20414;-77
2020/12/03 07:55:29;;;;;;;43.83;27.30;;;2.70;67.00;4.20;99588.00;;;;5056619;28;20864;-77
2020/12/03 07:57:58;;;;;;;45.35;28.88;;;2.70;66.60;4.20;99584.00;;;;5054819;28;20441;-76
2020/12/03 08:00:49;;;;;;;46.23;28.93;;;2.70;67.00;4.20;99570.00;;;;5053774;28;20456;-77
2020/12/03 08:03:52;;;;;;;42.30;27.25;;;2.70;67.00;4.30;99562.00;;;;5053463;28;20407;-77
2020/12/03 08:06:29;;;;;;;44.65;27.75;;;2.70;67.10;4.30;99561.00;;;;5046176;28;20435;-77
2020/12/03 08:09:23;;;;;;;45.70;27.90;;;2.70;66.90;4.40;99551.00;;;;5034733;28;20567;-77
2020/12/03 08:12:08;;;;;;;40.00;27.90;;;2.80;66.90;4.20;99528.00;;;;5051724;28;20524;-77
2020/12/03 08:14:41;;;;;;;45.50;28.00;;;2.80;66.50;4.30;99541.00;;;;5052842;28;20434;-77
2020/12/03 08:17:45;;;;;;;39.45;26.25;;;2.80;66.60;4.30;99532.00;;;;5055297;28;20431;-77
2020/12/03 08:20:22;;;;;;;42.35;28.02;;;2.80;66.60;4.40;99536.00;;;;5054949;28;20430;-77
2020/12/03 08:23:07;;;;;;;42.03;26.75;;;2.80;66.60;4.30;99537.00;;;;5060753;28;20422;-77
2020/12/03 08:25:46;;;;;;;42.90;27.40;;;2.80;66.40;4.40;99540.00;;;;5046057;28;20548;-77
2020/12/03 08:28:26;;;;;;;41.85;27.02;;;2.80;66.40;4.40;99540.00;;;;5061735;28;20411;-76
2020/12/03 08:30:53;;;;;;;42.47;26.38;;;2.90;67.30;4.50;99542.00;;;;5062691;28;20445;-77
2020/12/03 08:33:34;;;;;;;38.33;26.85;;;2.90;66.50;4.50;99533.00;;;;5061669;28;20421;-77
2020/12/03 08:36:06;;;;;;;36.65;25.55;;;2.90;66.30;4.60;99506.00;;;;5070573;28;20436;-77
2020/12/03 08:38:37;;;;;;;38.08;25.80;;;3.00;66.40;4.70;99534.00;;;;5060385;28;20470;-77
2020/12/03 08:41:07;;;;;;;40.42;27.02;;;3.00;66.10;4.70;99522.00;;;;5036513;28;20489;-77
2020/12/03 08:43:41;;;;;;;40.83;26.73;;;3.10;66.10;4.70;99515.00;;;;5051252;28;20509;-77
2020/12/03 08:46:14;;;;;;;40.90;26.63;;;3.10;66.20;4.80;67307.00;;;;5053736;28;20418;-77
2020/12/03 08:48:43;;;;;;;39.50;26.63;;;3.30;66.40;4.90;99513.00;;;;5045488;28;20425;-77
2020/12/03 08:51:13;;;;;;;38.80;26.02;;;3.20;66.20;5.00;99505.00;;;;5050970;28;20410;-76
2020/12/03 08:53:45;;;;;;;35.17;25.50;;;3.30;65.80;5.10;99518.00;;;;5052460;28;20512;-77
2020/12/03 08:56:32;;;;;;;38.28;26.52;;;3.40;65.30;5.10;99520.00;;;;5058316;28;20439;-76
2020/12/03 08:59:08;;;;;;;34.92;24.40;;;3.40;64.80;5.20;99506.00;;;;5052560;28;20518;-77
2020/12/03 09:01:40;;;;;;;36.78;25.10;;;3.60;64.70;5.30;99502.00;;;;5052354;28;20427;-78
2020/12/03 09:04:11;;;;;;;35.83;25.40;;;3.50;64.40;5.40;99502.00;;;;5040830;28;20467;-78
2020/12/03 09:06:48;;;;;;;33.50;23.60;;;3.60;64.40;5.40;99498.00;;;;5067646;28;20427;-76
2020/12/03 09:09:18;;;;;;;34.47;23.90;;;3.60;64.50;5.40;99506.00;;;;5054313;28;20938;-77
2020/12/03 09:11:47;;;;;;;34.50;24.10;;;3.60;64.00;5.40;99502.00;;;;5053439;28;20511;-77
2020/12/03 09:14:16;;;;;;;31.98;23.40;;;3.60;63.90;5.40;99487.00;;;;5036263;28;20418;-77
2020/12/03 09:16:49;;;;;;;31.95;23.75;;;3.70;64.10;5.40;99491.00;;;;5059968;28;21011;-77
2020/12/03 09:19:24;;;;;;;31.90;24.05;;;3.70;63.90;5.20;99488.00;;;;5062250;28;20935;-76
2020/12/03 09:21:52;;;;;;;35.33;24.40;;;3.60;63.20;5.40;99500.00;;;;5050641;28;20423;-78
2020/12/03 09:24:24;;;;;;;31.90;23.60;;;3.60;63.60;5.50;99488.00;;;;5052134;28;20526;-77
2020/12/03 09:26:57;;;;;;;32.28;23.25;;;3.70;64.00;5.40;99485.00;;;;5056835;28;20442;-77
2020/12/03 09:29:24;;;;;;;35.28;24.23;;;3.70;63.60;5.60;99488.00;;;;5056517;28;20423;-77
2020/12/03 09:32:17;;;;;;;31.40;22.40;;;3.80;64.10;5.60;99477.00;;;;5057180;28;20517;-77
2020/12/03 09:34:50;;;;;;;34.10;24.08;;;3.80;63.80;5.60;99482.00;;;;5053718;28;20425;-78
2020/12/03 09:37:18;;;;;;;32.65;23.60;;;3.80;63.70;5.70;99454.00;;;;5036591;28;20478;-78
2020/12/03 09:39:47;;;;;;;31.13;23.13;;;3.90;64.10;5.70;99466.00;;;;5042754;28;20432;-77
2020/12/03 09:42:18;;;;;;;28.90;22.02;;;3.90;63.60;5.70;99465.00;;;;5035883;28;20419;-78
2020/12/03 09:44:53;;;;;;;28.53;22.13;;;4.00;63.00;5.70;99472.00;;;;5036027;28;20429;-77
2020/12/03 09:47:26;;;;;;;27.73;22.10;;;3.90;62.70;5.70;99471.00;;;;5036809;28;20426;-77
2020/12/03 09:49:56;;;;;;;35.90;23.83;;;4.00;63.20;5.70;99459.00;;;;5052598;28;20423;-78
2020/12/03 09:52:24;;;;;;;36.07;25.20;;;4.00;62.80;5.70;99449.00;;;;5058006;28;20413;-77
2020/12/03 09:54:52;;;;;;;33.10;24.45;;;4.00;62.30;5.80;99456.00;;;;5057353;28;20502;-77
2020/12/03 09:57:19;;;;;;;33.70;24.35;;;4.00;62.20;5.80;99455.00;;;;5070926;28;20789;-77
2020/12/03 09:59:47;;;;;;;33.42;25.67;;;4.10;62.10;5.80;99460.00;;;;5060971;28;20413;-79
2020/12/03 10:02:50;;;;;;;33.92;26.95;;;4.10;61.70;5.90;99434.00;;;;5057851;28;20505;-78
2020/12/03 10:05:40;;;;;;;33.22;26.90;;;4.20;61.40;217.30;159207.00;;;;5067655;28;20429;-79
2020/12/03 10:09:00;;;;;;;32.22;26.17;;;4.20;61.50;5.70;99438.00;;;;5054066;28;20483;-78
2020/12/03 10:11:56;;;;;;;31.80;25.40;;;4.30;59.90;5.70;99416.00;;;;5022598;28;20491;-75
2020/12/03 10:14:45;;;;;;;33.03;27.42;;;4.20;59.30;5.80;99412.00;;;;5056437;28;20575;-76
2020/12/03 10:17:17;;;;;;;28.55;24.33;;;4.30;59.50;5.70;99406.00;;;;5039704;28;20423;-79
2020/12/03 10:19:48;;;;;;;29.98;24.52;;;4.40;57.80;5.70;99398.00;;;;5058918;28;20507;-78
2020/12/03 10:22:31;;;;;;;28.50;24.50;;;4.30;58.70;5.70;99412.00;;;;5056467;28;20421;-77
2020/12/03 10:25:16;;;;;;;26.17;22.55;;;4.30;58.20;5.80;99401.00;;;;5058689;28;20462;-78
2020/12/03 10:28:00;;;;;;;26.73;22.73;;;4.30;58.20;5.80;99388.00;;;;5049774;28;20417;-77
2020/12/03 10:30:37;;;;;;;25.42;22.27;;;4.30;57.80;217.30;159220.00;;;;5076636;28;20437;-77
2020/12/03 10:33:12;;;;;;;26.88;22.33;;;4.40;58.40;5.80;99384.00;;;;5060653;28;20552;-77
2020/12/03 10:35:44;;;;;;;26.95;22.30;;;4.40;56.90;5.80;99378.00;;;;5063631;28;20429;-74
2020/12/03 10:38:19;;;;;;;27.98;22.25;;;4.40;57.40;5.90;99378.00;;;;5071171;28;20417;-76
2020/12/03 10:40:53;;;;;;;25.90;21.13;;;4.40;57.20;5.90;99379.00;;;;5064512;28;20448;-75
2020/12/03 10:43:26;;;;;;;25.35;20.88;;;4.50;56.90;5.70;99369.00;;;;5063409;28;20472;-76
2020/12/03 10:45:57;;;;;;;27.17;21.70;;;4.40;55.90;5.70;99372.00;;;;5075807;28;20454;-77
2020/12/03 10:48:30;;;;;;;24.38;21.20;;;4.40;56.80;217.30;159139.00;;;;5083343;28;20425;-76
2020/12/03 10:51:00;;;;;;;23.55;19.60;;;4.40;56.70;5.80;99357.00;;;;5076655;28;20425;-78
2020/12/03 10:53:31;;;;;;;24.42;20.85;;;4.40;56.50;5.90;99344.00;;;;5073250;28;20423;-76
2020/12/03 10:56:01;;;;;;;25.33;20.10;;;4.50;56.60;5.90;99340.00;;;;5076867;28;20780;-76
2020/12/03 10:58:38;;;;;;;23.75;20.48;;;4.50;56.00;6.00;99333.00;;;;5067762;28;20422;-76
2020/12/03 11:01:09;;;;;;;25.45;20.02;;;4.60;56.00;6.00;99326.00;;;;5070641;28;20428;-76
2020/12/03 11:03:39;;;;;;;24.60;20.00;;;4.60;55.50;5.90;98896.00;;;;5072976;28;20425;-76
2020/12/03 11:06:07;;;;;;;23.08;19.35;;;4.60;55.60;5.90;99324.00;;;;5072301;28;20417;-76
2020/12/03 11:08:38;;;;;;;24.00;19.85;;;4.50;56.00;6.10;99311.00;;;;5068573;28;20509;-77
2020/12/03 11:11:08;;;;;;;21.97;19.37;;;4.60;56.10;6.00;99327.00;;;;5069217;28;20424;-77
2020/12/03 11:13:36;;;;;;;23.95;19.73;;;4.70;56.20;6.10;99334.00;;;;5069294;28;20415;-77
2020/12/03 11:16:06;;;;;;;24.48;20.40;;;4.60;56.10;6.10;99323.00;;;;5068007;28;20467;-75
2020/12/03 11:18:47;;;;;;;23.77;19.30;;;4.70;56.20;6.10;99324.00;;;;5066136;28;20500;-77
2020/12/03 11:21:24;;;;;;;26.10;20.35;;;4.60;56.10;6.00;99298.00;;;;5064151;28;20417;-77
2020/12/03 11:24:05;;;;;;;28.80;21.97;;;4.60;56.10;5.90;99315.00;;;;5053995;28;20535;-76
2020/12/03 11:26:34;;;;;;;26.90;21.58;;;4.60;55.50;217.30;159185.00;;;;5038908;28;20430;-77
2020/12/03 11:29:11;;;;;;;26.70;21.95;;;4.60;55.40;6.00;67578.00;;;;5038302;28;20453;-76